Time;durP1;ratioP1;P1;durP2;ratioP2;P2;SDS_P1;SDS_P2;PMS_P1;PMS_P2;Temp;Humidity;BMP_temperature;BMP_pressure;BME280_temperature;BME280_humidity;BME280_pressure;Samples;Min_cycle;Max_cycle;Signal;HPM_P1;HPM_P2
2021/05/15 00:00:26;;;;;;;4.099999;1.7;;;;;;;10.64;100;94697.34;;;;
2021/05/15 00:01:30;;;;;;;4.099999;1.7;;;;;;;10.64;100;94697.34;;;;
2021/05/15 00:02:30;;;;;;;4.099999;1.7;;;;;;;10.64;100;94697.34;;;;
2021/05/15 00:03:31;;;;;;;4.099999;1.7;;;;;;;10.64;100;94697.34;;;;
2021/05/15 00:04:32;;;;;;;4.099999;1.7;;;;;;;10.64;100;94697.34;;;;
2021/05/15 00:05:32;;;;;;;1.8;1.5;;;;;;;10.59;100;94699.98;;;;
2021/05/15 00:06:34;;;;;;;1.8;1.5;;;;;;;10.59;100;94699.98;;;;
2021/05/15 00:07:35;;;;;;;1.8;1.5;;;;;;;10.59;100;94699.98;;;;
2021/05/15 00:08:36;;;;;;;1.8;1.5;;;;;;;10.59;100;94699.98;;;;
2021/05/15 00:09:36;;;;;;;1.8;1.5;;;;;;;10.59;100;94699.98;;;;
2021/05/15 00:10:37;;;;;;;1.8;1.5;;;;;;;10.59;100;94699.98;;;;
2021/05/15 00:11:38;;;;;;;1.8;1.5;;;;;;;10.59;100;94699.98;;;;
2021/05/15 00:12:38;;;;;;;1.8;1.5;;;;;;;10.59;100;94699.98;;;;
2021/05/15 00:13:39;;;;;;;1.8;1.5;;;;;;;10.59;100;94699.98;;;;
2021/05/15 00:14:39;;;;;;;1.8;1.5;;;;;;;10.59;100;94699.98;;;;
2021/05/15 00:15:40;;;;;;;3.5;1.45;;;;;;;10.54;100;94691.69;;;;
2021/05/15 00:16:40;;;;;;;3.5;1.45;;;;;;;10.54;100;94691.69;;;;
2021/05/15 00:17:41;;;;;;;3.5;1.45;;;;;;;10.54;100;94691.69;;;;
2021/05/15 00:18:42;;;;;;;3.5;1.45;;;;;;;10.54;100;94691.69;;;;
2021/05/15 00:19:42;;;;;;;3.5;1.45;;;;;;;10.54;100;94691.69;;;;
2021/05/15 00:20:43;;;;;;;3.5;1.45;;;;;;;10.54;100;94691.69;;;;
2021/05/15 00:21:43;;;;;;;3.5;1.45;;;;;;;10.54;100;94691.69;;;;
2021/05/15 00:22:44;;;;;;;3.5;1.45;;;;;;;10.54;100;94691.69;;;;
2021/05/15 00:23:45;;;;;;;3.5;1.45;;;;;;;10.54;100;94691.69;;;;
2021/05/15 00:24:45;;;;;;;3.5;1.45;;;;;;;10.54;100;94691.69;;;;
2021/05/15 00:25:46;;;;;;;3.5;1.45;;;;;;;10.54;100;94691.69;;;;
2021/05/15 00:26:46;;;;;;;1.85;1.3;;;;;;;10.51;100;94689.08;;;;
2021/05/15 00:27:47;;;;;;;1.85;1.3;;;;;;;10.51;100;94689.08;;;;
2021/05/15 00:28:47;;;;;;;1.85;1.3;;;;;;;10.51;100;94689.08;;;;
2021/05/15 00:29:48;;;;;;;1.85;1.3;;;;;;;10.51;100;94689.08;;;;
2021/05/15 00:30:48;;;;;;;1.85;1.3;;;;;;;10.51;100;94689.08;;;;
2021/05/15 00:31:49;;;;;;;1.85;1.3;;;;;;;10.51;100;94689.08;;;;
2021/05/15 00:32:49;;;;;;;1.85;1.3;;;;;;;10.51;100;94689.08;;;;
2021/05/15 00:33:50;;;;;;;1.85;1.3;;;;;;;10.51;100;94689.08;;;;
2021/05/15 00:34:50;;;;;;;1.85;1.3;;;;;;;10.51;100;94689.08;;;;
2021/05/15 00:35:51;;;;;;;1.85;1.3;;;;;;;10.51;100;94689.08;;;;
2021/05/15 00:36:52;;;;;;;1.95;1.5;;;;;;;10.44;100;94693.33;;;;
2021/05/15 00:37:53;;;;;;;1.95;1.5;;;;;;;10.44;100;94693.33;;;;
2021/05/15 00:38:53;;;;;;;1.95;1.5;;;;;;;10.44;100;94693.33;;;;
2021/05/15 00:39:54;;;;;;;1.95;1.5;;;;;;;10.44;100;94693.33;;;;
2021/05/15 00:40:54;;;;;;;1.95;1.5;;;;;;;10.44;100;94693.33;;;;
2021/05/15 00:41:55;;;;;;;1.95;1.5;;;;;;;10.44;100;94693.33;;;;
2021/05/15 00:42:55;;;;;;;1.95;1.5;;;;;;;10.44;100;94693.33;;;;
2021/05/15 00:44:00;;;;;;;1.95;1.5;;;;;;;10.44;100;94693.33;;;;
2021/05/15 00:45:05;;;;;;;1.95;1.5;;;;;;;10.44;100;94693.33;;;;
2021/05/15 00:46:08;;;;;;;1.95;1.5;;;;;;;10.44;100;94693.33;;;;
2021/05/15 00:47:08;;;;;;;1.95;1.5;;;;;;;10.44;100;94693.33;;;;
2021/05/15 00:48:12;;;;;;;1.6;1.5;;;;;;;10.3;100;94689.36;;;;
2021/05/15 00:49:12;;;;;;;1.6;1.5;;;;;;;10.3;100;94689.36;;;;
2021/05/15 00:50:13;;;;;;;1.6;1.5;;;;;;;10.3;100;94689.36;;;;
2021/05/15 00:51:13;;;;;;;1.6;1.5;;;;;;;10.3;100;94689.36;;;;
2021/05/15 00:52:14;;;;;;;1.6;1.5;;;;;;;10.3;100;94689.36;;;;
2021/05/15 00:53:15;;;;;;;1.6;1.5;;;;;;;10.3;100;94689.36;;;;
2021/05/15 00:54:17;;;;;;;1.6;1.5;;;;;;;10.3;100;94689.36;;;;
2021/05/15 00:55:18;;;;;;;1.6;1.5;;;;;;;10.3;100;94689.36;;;;
2021/05/15 00:56:18;;;;;;;1.6;1.5;;;;;;;10.3;100;94689.36;;;;
2021/05/15 00:57:19;;;;;;;1.6;1.5;;;;;;;10.3;100;94689.36;;;;
2021/05/15 00:58:21;;;;;;;1.4;1.3;;;;;;;10.19;100;94689.45;;;;
2021/05/15 00:59:22;;;;;;;1.4;1.3;;;;;;;10.19;100;94689.45;;;;
2021/05/15 01:00:22;;;;;;;1.4;1.3;;;;;;;10.19;100;94689.45;;;;
2021/05/15 01:01:23;;;;;;;1.4;1.3;;;;;;;10.19;100;94689.45;;;;
2021/05/15 01:02:24;;;;;;;1.4;1.3;;;;;;;10.19;100;94689.45;;;;
2021/05/15 01:03:25;;;;;;;1.4;1.3;;;;;;;10.19;100;94689.45;;;;
2021/05/15 01:04:25;;;;;;;1.4;1.3;;;;;;;10.19;100;94689.45;;;;
2021/05/15 01:05:27;;;;;;;1.4;1.3;;;;;;;10.19;100;94689.45;;;;
2021/05/15 01:06:28;;;;;;;1.4;1.3;;;;;;;10.19;100;94689.45;;;;
2021/05/15 01:07:28;;;;;;;1.4;1.3;;;;;;;10.19;100;94689.45;;;;
2021/05/15 01:08:29;;;;;;;1.4;1.3;;;;;;;10.19;100;94689.45;;;;
2021/05/15 01:09:29;;;;;;;2.6;1.5;;;;;;;10.18;100;94693.63;;;;
2021/05/15 01:10:30;;;;;;;2.6;1.5;;;;;;;10.18;100;94693.63;;;;
2021/05/15 01:11:30;;;;;;;2.6;1.5;;;;;;;10.18;100;94693.63;;;;
2021/05/15 01:12:31;;;;;;;2.6;1.5;;;;;;;10.18;100;94693.63;;;;
2021/05/15 01:13:32;;;;;;;2.6;1.5;;;;;;;10.18;100;94693.63;;;;
2021/05/15 01:14:33;;;;;;;2.6;1.5;;;;;;;10.18;100;94693.63;;;;
2021/05/15 01:15:34;;;;;;;2.6;1.5;;;;;;;10.18;100;94693.63;;;;
2021/05/15 01:16:35;;;;;;;2.6;1.5;;;;;;;10.18;100;94693.63;;;;
2021/05/15 01:17:36;;;;;;;2.6;1.5;;;;;;;10.18;100;94693.63;;;;
2021/05/15 01:18:37;;;;;;;2.6;1.5;;;;;;;10.18;100;94693.63;;;;
2021/05/15 01:19:37;;;;;;;1.8;1.5;;;;;;;10.14;100;94693.02;;;;
2021/05/15 01:20:38;;;;;;;1.8;1.5;;;;;;;10.14;100;94693.02;;;;
2021/05/15 01:21:38;;;;;;;1.8;1.5;;;;;;;10.14;100;94693.02;;;;
2021/05/15 01:22:39;;;;;;;1.8;1.5;;;;;;;10.14;100;94693.02;;;;
2021/05/15 01:23:40;;;;;;;1.8;1.5;;;;;;;10.14;100;94693.02;;;;
2021/05/15 01:24:40;;;;;;;1.8;1.5;;;;;;;10.14;100;94693.02;;;;
2021/05/15 01:25:45;;;;;;;1.8;1.5;;;;;;;10.14;100;94693.02;;;;
2021/05/15 01:26:45;;;;;;;1.8;1.5;;;;;;;10.14;100;94693.02;;;;
2021/05/15 01:27:46;;;;;;;1.8;1.5;;;;;;;10.14;100;94693.02;;;;
2021/05/15 01:28:46;;;;;;;1.8;1.5;;;;;;;10.14;100;94693.02;;;;
2021/05/15 01:29:51;;;;;;;1.8;1.5;;;;;;;10.14;100;94693.02;;;;
2021/05/15 01:30:52;;;;;;;2.2;1.5;;;;;;;10.08;100;94694.37;;;;
2021/05/15 01:31:52;;;;;;;2.2;1.5;;;;;;;10.08;100;94694.37;;;;
2021/05/15 01:32:53;;;;;;;2.2;1.5;;;;;;;10.08;100;94694.37;;;;
2021/05/15 01:33:54;;;;;;;2.2;1.5;;;;;;;10.08;100;94694.37;;;;
2021/05/15 01:34:54;;;;;;;2.2;1.5;;;;;;;10.08;100;94694.37;;;;
2021/05/15 01:35:55;;;;;;;2.2;1.5;;;;;;;10.08;100;94694.37;;;;
2021/05/15 01:36:56;;;;;;;2.2;1.5;;;;;;;10.08;100;94694.37;;;;
2021/05/15 01:37:57;;;;;;;2.2;1.5;;;;;;;10.08;100;94694.37;;;;
2021/05/15 01:38:58;;;;;;;2.2;1.5;;;;;;;10.08;100;94694.37;;;;
2021/05/15 01:39:58;;;;;;;2.2;1.5;;;;;;;10.08;100;94694.37;;;;
2021/05/15 01:40:59;;;;;;;3.25;1.65;;;;;;;9.98;100;94692.88;;;;
2021/05/15 01:42:01;;;;;;;3.25;1.65;;;;;;;9.98;100;94692.88;;;;
2021/05/15 01:43:02;;;;;;;3.25;1.65;;;;;;;9.98;100;94692.88;;;;
2021/05/15 01:44:03;;;;;;;3.25;1.65;;;;;;;9.98;100;94692.88;;;;
2021/05/15 01:45:04;;;;;;;3.25;1.65;;;;;;;9.98;100;94692.88;;;;
2021/05/15 01:46:06;;;;;;;3.25;1.65;;;;;;;9.98;100;94692.88;;;;
2021/05/15 01:47:08;;;;;;;3.25;1.65;;;;;;;9.98;100;94692.88;;;;
2021/05/15 01:48:09;;;;;;;3.25;1.65;;;;;;;9.98;100;94692.88;;;;
2021/05/15 01:49:16;;;;;;;3.25;1.65;;;;;;;9.98;100;94692.88;;;;
2021/05/15 01:50:16;;;;;;;3.25;1.65;;;;;;;9.98;100;94692.88;;;;
2021/05/15 01:51:17;;;;;;;2.2;1.6;;;;;;;9.8;100;94697.03;;;;
2021/05/15 01:52:17;;;;;;;2.2;1.6;;;;;;;9.8;100;94697.03;;;;
2021/05/15 01:53:18;;;;;;;2.2;1.6;;;;;;;9.8;100;94697.03;;;;
2021/05/15 01:54:19;;;;;;;2.2;1.6;;;;;;;9.8;100;94697.03;;;;
2021/05/15 01:55:19;;;;;;;2.2;1.6;;;;;;;9.8;100;94697.03;;;;
2021/05/15 01:56:22;;;;;;;2.2;1.6;;;;;;;9.8;100;94697.03;;;;
2021/05/15 01:57:24;;;;;;;2.2;1.6;;;;;;;9.8;100;94697.03;;;;
2021/05/15 01:58:25;;;;;;;2.2;1.6;;;;;;;9.8;100;94697.03;;;;
2021/05/15 01:59:26;;;;;;;2.2;1.6;;;;;;;9.8;100;94697.03;;;;
2021/05/15 02:00:27;;;;;;;2.2;1.6;;;;;;;9.8;100;94697.03;;;;
2021/05/15 02:01:28;;;;;;;2.2;1.6;;;;;;;9.8;100;94697.03;;;;
2021/05/15 02:02:28;;;;;;;1.55;1.4;;;;;;;9.62;100;94690.67;;;;
2021/05/15 02:03:29;;;;;;;1.55;1.4;;;;;;;9.62;100;94690.67;;;;
2021/05/15 02:04:30;;;;;;;1.55;1.4;;;;;;;9.62;100;94690.67;;;;
2021/05/15 02:05:31;;;;;;;1.55;1.4;;;;;;;9.62;100;94690.67;;;;
2021/05/15 02:06:31;;;;;;;1.55;1.4;;;;;;;9.62;100;94690.67;;;;
2021/05/15 02:07:31;;;;;;;1.55;1.4;;;;;;;9.62;100;94690.67;;;;
2021/05/15 02:08:32;;;;;;;1.55;1.4;;;;;;;9.62;100;94690.67;;;;
2021/05/15 02:09:33;;;;;;;1.55;1.4;;;;;;;9.62;100;94690.67;;;;
2021/05/15 02:10:33;;;;;;;1.55;1.4;;;;;;;9.62;100;94690.67;;;;
2021/05/15 02:11:35;;;;;;;1.55;1.4;;;;;;;9.62;100;94690.67;;;;
2021/05/15 02:12:36;;;;;;;3.3;1.8;;;;;;;9.41;100;94690.33;;;;
2021/05/15 02:13:36;;;;;;;3.3;1.8;;;;;;;9.41;100;94690.33;;;;
2021/05/15 02:14:37;;;;;;;3.3;1.8;;;;;;;9.41;100;94690.33;;;;
2021/05/15 02:15:37;;;;;;;3.3;1.8;;;;;;;9.41;100;94690.33;;;;
2021/05/15 02:16:38;;;;;;;3.3;1.8;;;;;;;9.41;100;94690.33;;;;
2021/05/15 02:17:39;;;;;;;3.3;1.8;;;;;;;9.41;100;94690.33;;;;
2021/05/15 02:18:39;;;;;;;3.3;1.8;;;;;;;9.41;100;94690.33;;;;
2021/05/15 02:19:40;;;;;;;3.3;1.8;;;;;;;9.41;100;94690.33;;;;
2021/05/15 02:20:40;;;;;;;3.3;1.8;;;;;;;9.41;100;94690.33;;;;
2021/05/15 02:21:43;;;;;;;3.3;1.8;;;;;;;9.41;100;94690.33;;;;
2021/05/15 02:22:43;;;;;;;3.3;1.8;;;;;;;9.41;100;94690.33;;;;
2021/05/15 02:23:44;;;;;;;2.8;1.9;;;;;;;9.28;100;94685.79;;;;
2021/05/15 02:24:44;;;;;;;2.8;1.9;;;;;;;9.28;100;94685.79;;;;
2021/05/15 02:25:46;;;;;;;2.8;1.9;;;;;;;9.28;100;94685.79;;;;
2021/05/15 02:26:47;;;;;;;2.8;1.9;;;;;;;9.28;100;94685.79;;;;
2021/05/15 02:27:48;;;;;;;2.8;1.9;;;;;;;9.28;100;94685.79;;;;
2021/05/15 02:28:48;;;;;;;2.8;1.9;;;;;;;9.28;100;94685.79;;;;
2021/05/15 02:29:49;;;;;;;2.8;1.9;;;;;;;9.28;100;94685.79;;;;
2021/05/15 02:30:49;;;;;;;2.8;1.9;;;;;;;9.28;100;94685.79;;;;
2021/05/15 02:31:50;;;;;;;2.8;1.9;;;;;;;9.28;100;94685.79;;;;
2021/05/15 02:32:50;;;;;;;2.8;1.9;;;;;;;9.28;100;94685.79;;;;
2021/05/15 02:33:51;;;;;;;2.8;1.9;;;;;;;9.28;100;94685.79;;;;
2021/05/15 02:34:51;;;;;;;1.7;1.45;;;;;;;9.26;100;94682.1;;;;
2021/05/15 02:35:52;;;;;;;1.7;1.45;;;;;;;9.26;100;94682.1;;;;
2021/05/15 02:36:53;;;;;;;1.7;1.45;;;;;;;9.26;100;94682.1;;;;
2021/05/15 02:37:54;;;;;;;1.7;1.45;;;;;;;9.26;100;94682.1;;;;
2021/05/15 02:38:57;;;;;;;1.7;1.45;;;;;;;9.26;100;94682.1;;;;
2021/05/15 02:39:57;;;;;;;1.7;1.45;;;;;;;9.26;100;94682.1;;;;
2021/05/15 02:40:58;;;;;;;1.7;1.45;;;;;;;9.26;100;94682.1;;;;
2021/05/15 02:41:59;;;;;;;1.7;1.45;;;;;;;9.26;100;94682.1;;;;
2021/05/15 02:42:59;;;;;;;1.7;1.45;;;;;;;9.26;100;94682.1;;;;
2021/05/15 02:44:00;;;;;;;1.7;1.45;;;;;;;9.26;100;94682.1;;;;
2021/05/15 02:45:00;;;;;;;1.7;1.6;;;;;;;9.22;100;94684.46;;;;
2021/05/15 02:46:00;;;;;;;1.7;1.6;;;;;;;9.22;100;94684.46;;;;
2021/05/15 02:47:01;;;;;;;1.7;1.6;;;;;;;9.22;100;94684.46;;;;
2021/05/15 02:48:02;;;;;;;1.7;1.6;;;;;;;9.22;100;94684.46;;;;
2021/05/15 02:49:03;;;;;;;1.7;1.6;;;;;;;9.22;100;94684.46;;;;
2021/05/15 02:50:03;;;;;;;1.7;1.6;;;;;;;9.22;100;94684.46;;;;
2021/05/15 02:51:05;;;;;;;1.7;1.6;;;;;;;9.22;100;94684.46;;;;
2021/05/15 02:52:06;;;;;;;1.7;1.6;;;;;;;9.22;100;94684.46;;;;
2021/05/15 02:53:06;;;;;;;1.7;1.6;;;;;;;9.22;100;94684.46;;;;
2021/05/15 02:54:07;;;;;;;1.7;1.6;;;;;;;9.22;100;94684.46;;;;
2021/05/15 02:55:07;;;;;;;1.7;1.6;;;;;;;9.22;100;94684.46;;;;
2021/05/15 02:56:10;;;;;;;2.5;1.7;;;;;;;9.16;100;94685.01;;;;
2021/05/15 02:57:11;;;;;;;2.5;1.7;;;;;;;9.16;100;94685.01;;;;
2021/05/15 02:58:13;;;;;;;2.5;1.7;;;;;;;9.16;100;94685.01;;;;
2021/05/15 02:59:14;;;;;;;2.5;1.7;;;;;;;9.16;100;94685.01;;;;
2021/05/15 03:00:14;;;;;;;2.5;1.7;;;;;;;9.16;100;94685.01;;;;
2021/05/15 03:01:19;;;;;;;2.5;1.7;;;;;;;9.16;100;94685.01;;;;
2021/05/15 03:02:19;;;;;;;2.5;1.7;;;;;;;9.16;100;94685.01;;;;
2021/05/15 03:03:20;;;;;;;2.5;1.7;;;;;;;9.16;100;94685.01;;;;
2021/05/15 03:04:21;;;;;;;2.5;1.7;;;;;;;9.16;100;94685.01;;;;
2021/05/15 03:05:21;;;;;;;2.5;1.7;;;;;;;9.16;100;94685.01;;;;
2021/05/15 03:06:23;;;;;;;2.3;1.7;;;;;;;9.09;100;94675.74;;;;
2021/05/15 03:07:24;;;;;;;2.3;1.7;;;;;;;9.09;100;94675.74;;;;
2021/05/15 03:08:25;;;;;;;2.3;1.7;;;;;;;9.09;100;94675.74;;;;
2021/05/15 03:09:25;;;;;;;2.3;1.7;;;;;;;9.09;100;94675.74;;;;
2021/05/15 03:10:26;;;;;;;2.3;1.7;;;;;;;9.09;100;94675.74;;;;
2021/05/15 03:11:27;;;;;;;2.3;1.7;;;;;;;9.09;100;94675.74;;;;
2021/05/15 03:12:28;;;;;;;2.3;1.7;;;;;;;9.09;100;94675.74;;;;
2021/05/15 03:13:28;;;;;;;2.3;1.7;;;;;;;9.09;100;94675.74;;;;
2021/05/15 03:14:29;;;;;;;2.3;1.7;;;;;;;9.09;100;94675.74;;;;
2021/05/15 03:15:29;;;;;;;2.3;1.7;;;;;;;9.09;100;94675.74;;;;
2021/05/15 03:16:31;;;;;;;2.3;1.7;;;;;;;9.09;100;94675.74;;;;
2021/05/15 03:17:31;;;;;;;1.6;1.5;;;;;;;9.06;100;94678.1;;;;
2021/05/15 03:18:32;;;;;;;1.6;1.5;;;;;;;9.06;100;94678.1;;;;
2021/05/15 03:19:32;;;;;;;1.6;1.5;;;;;;;9.06;100;94678.1;;;;
2021/05/15 03:20:34;;;;;;;1.6;1.5;;;;;;;9.06;100;94678.1;;;;
2021/05/15 03:21:34;;;;;;;1.6;1.5;;;;;;;9.06;100;94678.1;;;;
2021/05/15 03:22:35;;;;;;;1.6;1.5;;;;;;;9.06;100;94678.1;;;;
2021/05/15 03:23:36;;;;;;;1.6;1.5;;;;;;;9.06;100;94678.1;;;;
2021/05/15 03:24:36;;;;;;;1.6;1.5;;;;;;;9.06;100;94678.1;;;;
2021/05/15 03:25:37;;;;;;;1.6;1.5;;;;;;;9.06;100;94678.1;;;;
2021/05/15 03:26:37;;;;;;;1.6;1.5;;;;;;;9.06;100;94678.1;;;;
2021/05/15 03:27:38;;;;;;;1.6;1.5;;;;;;;9.06;100;94681.73;;;;
2021/05/15 03:28:38;;;;;;;1.6;1.5;;;;;;;9.06;100;94681.73;;;;
2021/05/15 03:29:39;;;;;;;1.6;1.5;;;;;;;9.06;100;94681.73;;;;
2021/05/15 03:30:40;;;;;;;1.6;1.5;;;;;;;9.06;100;94681.73;;;;
2021/05/15 03:31:40;;;;;;;1.6;1.5;;;;;;;9.06;100;94681.73;;;;
2021/05/15 03:32:41;;;;;;;1.6;1.5;;;;;;;9.06;100;94681.73;;;;
2021/05/15 03:33:42;;;;;;;1.6;1.5;;;;;;;9.06;100;94681.73;;;;
2021/05/15 03:34:42;;;;;;;1.6;1.5;;;;;;;9.06;100;94681.73;;;;
2021/05/15 03:35:43;;;;;;;1.6;1.5;;;;;;;9.06;100;94681.73;;;;
2021/05/15 03:36:43;;;;;;;1.6;1.5;;;;;;;9.06;100;94681.73;;;;
2021/05/15 03:37:44;;;;;;;1.6;1.5;;;;;;;9.06;100;94681.73;;;;
2021/05/15 03:38:44;;;;;;;1.6;1.5;;;;;;;9.02;100;94676.53;;;;
2021/05/15 03:39:45;;;;;;;1.6;1.5;;;;;;;9.02;100;94676.53;;;;
2021/05/15 03:40:45;;;;;;;1.6;1.5;;;;;;;9.02;100;94676.53;;;;
2021/05/15 03:41:46;;;;;;;1.6;1.5;;;;;;;9.02;100;94676.53;;;;
2021/05/15 03:42:48;;;;;;;1.6;1.5;;;;;;;9.02;100;94676.53;;;;
2021/05/15 03:43:48;;;;;;;1.6;1.5;;;;;;;9.02;100;94676.53;;;;
2021/05/15 03:44:48;;;;;;;1.6;1.5;;;;;;;9.02;100;94676.53;;;;
2021/05/15 03:45:51;;;;;;;1.6;1.5;;;;;;;9.02;100;94676.53;;;;
2021/05/15 03:46:51;;;;;;;1.6;1.5;;;;;;;9.02;100;94676.53;;;;
2021/05/15 03:47:52;;;;;;;1.6;1.5;;;;;;;9.02;100;94676.53;;;;
2021/05/15 03:48:53;;;;;;;1.9;1.6;;;;;;;8.98;100;94667.32;;;;
2021/05/15 03:49:53;;;;;;;1.9;1.6;;;;;;;8.98;100;94667.32;;;;
2021/05/15 03:50:54;;;;;;;1.9;1.6;;;;;;;8.98;100;94667.32;;;;
2021/05/15 03:51:54;;;;;;;1.9;1.6;;;;;;;8.98;100;94667.32;;;;
2021/05/15 03:52:55;;;;;;;1.9;1.6;;;;;;;8.98;100;94667.32;;;;
2021/05/15 03:53:55;;;;;;;1.9;1.6;;;;;;;8.98;100;94667.32;;;;
2021/05/15 03:54:56;;;;;;;1.9;1.6;;;;;;;8.98;100;94667.32;;;;
2021/05/15 03:55:57;;;;;;;1.9;1.6;;;;;;;8.98;100;94667.32;;;;
2021/05/15 03:56:57;;;;;;;1.9;1.6;;;;;;;8.98;100;94667.32;;;;
2021/05/15 03:57:58;;;;;;;1.9;1.6;;;;;;;8.98;100;94667.32;;;;
2021/05/15 03:58:58;;;;;;;1.9;1.6;;;;;;;8.98;100;94667.32;;;;
2021/05/15 03:59:59;;;;;;;1.6;1.5;;;;;;;8.97;100;94681.3;;;;
2021/05/15 04:00:59;;;;;;;1.6;1.5;;;;;;;8.97;100;94681.3;;;;
2021/05/15 04:02:00;;;;;;;1.6;1.5;;;;;;;8.97;100;94681.3;;;;
2021/05/15 04:03:00;;;;;;;1.6;1.5;;;;;;;8.97;100;94681.3;;;;
2021/05/15 04:04:01;;;;;;;1.6;1.5;;;;;;;8.97;100;94681.3;;;;
2021/05/15 04:05:02;;;;;;;1.6;1.5;;;;;;;8.97;100;94681.3;;;;
2021/05/15 04:06:03;;;;;;;1.6;1.5;;;;;;;8.97;100;94681.3;;;;
2021/05/15 04:07:04;;;;;;;1.6;1.5;;;;;;;8.97;100;94681.3;;;;
2021/05/15 04:08:04;;;;;;;1.6;1.5;;;;;;;8.97;100;94681.3;;;;
2021/05/15 04:09:05;;;;;;;1.6;1.5;;;;;;;8.97;100;94681.3;;;;
2021/05/15 04:10:05;;;;;;;1.6;1.5;;;;;;;8.97;100;94679.02;;;;
2021/05/15 04:11:07;;;;;;;1.6;1.5;;;;;;;8.97;100;94679.02;;;;
2021/05/15 04:12:07;;;;;;;1.6;1.5;;;;;;;8.97;100;94679.02;;;;
2021/05/15 04:13:18;;;;;;;1.6;1.5;;;;;;;8.97;100;94679.02;;;;
2021/05/15 04:14:26;;;;;;;1.6;1.5;;;;;;;8.97;100;94679.02;;;;
2021/05/15 04:15:36;;;;;;;1.6;1.5;;;;;;;8.97;100;94679.02;;;;
2021/05/15 04:16:48;;;;;;;1.6;1.5;;;;;;;8.97;100;94679.02;;;;
2021/05/15 04:17:49;;;;;;;1.6;1.5;;;;;;;8.97;100;94679.02;;;;
2021/05/15 04:18:50;;;;;;;1.6;1.5;;;;;;;8.97;100;94679.02;;;;
2021/05/15 04:19:50;;;;;;;1.6;1.5;;;;;;;8.97;100;94679.02;;;;
2021/05/15 04:20:51;;;;;;;3.3;1.6;;;;;;;9.08;100;94686.35;;;;
2021/05/15 04:21:52;;;;;;;3.3;1.6;;;;;;;9.08;100;94686.35;;;;
2021/05/15 04:22:52;;;;;;;3.3;1.6;;;;;;;9.08;100;94686.35;;;;
2021/05/15 04:23:53;;;;;;;3.3;1.6;;;;;;;9.08;100;94686.35;;;;
2021/05/15 04:24:53;;;;;;;3.3;1.6;;;;;;;9.08;100;94686.35;;;;
2021/05/15 04:25:54;;;;;;;3.3;1.6;;;;;;;9.08;100;94686.35;;;;
2021/05/15 04:26:54;;;;;;;3.3;1.6;;;;;;;9.08;100;94686.35;;;;
2021/05/15 04:27:57;;;;;;;3.3;1.6;;;;;;;9.08;100;94686.35;;;;
2021/05/15 04:28:57;;;;;;;3.3;1.6;;;;;;;9.08;100;94686.35;;;;
2021/05/15 04:29:59;;;;;;;3.3;1.6;;;;;;;9.08;100;94686.35;;;;
2021/05/15 04:30:59;;;;;;;3.3;1.6;;;;;;;9.08;100;94686.35;;;;
2021/05/15 04:32:00;;;;;;;1.7;1.5;;;;;;;9.17;100;94685.72;;;;
2021/05/15 04:33:02;;;;;;;1.7;1.5;;;;;;;9.17;100;94685.72;;;;
2021/05/15 04:34:04;;;;;;;1.7;1.5;;;;;;;9.17;100;94685.72;;;;
2021/05/15 04:35:04;;;;;;;1.7;1.5;;;;;;;9.17;100;94685.72;;;;
2021/05/15 04:36:05;;;;;;;1.7;1.5;;;;;;;9.17;100;94685.72;;;;
2021/05/15 04:37:06;;;;;;;1.7;1.5;;;;;;;9.17;100;94685.72;;;;
2021/05/15 04:38:06;;;;;;;1.7;1.5;;;;;;;9.17;100;94685.72;;;;
2021/05/15 04:39:07;;;;;;;1.7;1.5;;;;;;;9.17;100;94685.72;;;;
2021/05/15 04:40:08;;;;;;;1.7;1.5;;;;;;;9.17;100;94685.72;;;;
2021/05/15 04:41:09;;;;;;;1.7;1.5;;;;;;;9.17;100;94685.72;;;;
2021/05/15 04:42:10;;;;;;;1.75;1.6;;;;;;;9.26;100;94685.63;;;;
2021/05/15 04:43:10;;;;;;;1.75;1.6;;;;;;;9.26;100;94685.63;;;;
2021/05/15 04:44:12;;;;;;;1.75;1.6;;;;;;;9.26;100;94685.63;;;;
2021/05/15 04:45:12;;;;;;;1.75;1.6;;;;;;;9.26;100;94685.63;;;;
2021/05/15 04:46:14;;;;;;;1.75;1.6;;;;;;;9.26;100;94685.63;;;;
2021/05/15 04:47:15;;;;;;;1.75;1.6;;;;;;;9.26;100;94685.63;;;;
2021/05/15 04:48:15;;;;;;;1.75;1.6;;;;;;;9.26;100;94685.63;;;;
2021/05/15 04:49:16;;;;;;;1.75;1.6;;;;;;;9.26;100;94685.63;;;;
2021/05/15 04:50:17;;;;;;;1.75;1.6;;;;;;;9.26;100;94685.63;;;;
2021/05/15 04:51:17;;;;;;;1.75;1.6;;;;;;;9.26;100;94685.63;;;;
2021/05/15 04:52:18;;;;;;;1.75;1.6;;;;;;;9.26;100;94685.63;;;;
2021/05/15 04:53:18;;;;;;;3.100001;1.4;;;;;;;9.4;100;94697.31;;;;
2021/05/15 04:54:19;;;;;;;3.100001;1.4;;;;;;;9.4;100;94697.31;;;;
2021/05/15 04:55:19;;;;;;;3.100001;1.4;;;;;;;9.4;100;94697.31;;;;
2021/05/15 04:56:20;;;;;;;3.100001;1.4;;;;;;;9.4;100;94697.31;;;;
2021/05/15 04:57:20;;;;;;;3.100001;1.4;;;;;;;9.4;100;94697.31;;;;
2021/05/15 04:58:21;;;;;;;3.100001;1.4;;;;;;;9.4;100;94697.31;;;;
2021/05/15 04:59:21;;;;;;;3.100001;1.4;;;;;;;9.4;100;94697.31;;;;
2021/05/15 05:00:22;;;;;;;3.100001;1.4;;;;;;;9.4;100;94697.31;;;;
2021/05/15 05:01:23;;;;;;;3.100001;1.4;;;;;;;9.4;100;94697.31;;;;
2021/05/15 05:02:23;;;;;;;3.100001;1.4;;;;;;;9.4;100;94697.31;;;;
2021/05/15 05:03:24;;;;;;;1.7;1.4;;;;;;;9.65;100;94693.28;;;;
2021/05/15 05:04:25;;;;;;;1.7;1.4;;;;;;;9.65;100;94693.28;;;;
2021/05/15 05:05:25;;;;;;;1.7;1.4;;;;;;;9.65;100;94693.28;;;;
2021/05/15 05:06:26;;;;;;;1.7;1.4;;;;;;;9.65;100;94693.28;;;;
2021/05/15 05:07:26;;;;;;;1.7;1.4;;;;;;;9.65;100;94693.28;;;;
2021/05/15 05:08:27;;;;;;;1.7;1.4;;;;;;;9.65;100;94693.28;;;;
2021/05/15 05:09:27;;;;;;;1.7;1.4;;;;;;;9.65;100;94693.28;;;;
2021/05/15 05:10:28;;;;;;;1.7;1.4;;;;;;;9.65;100;94693.28;;;;
2021/05/15 05:11:28;;;;;;;1.7;1.4;;;;;;;9.65;100;94693.28;;;;
2021/05/15 05:12:29;;;;;;;1.7;1.4;;;;;;;9.65;100;94693.28;;;;
2021/05/15 05:13:30;;;;;;;1.7;1.4;;;;;;;9.65;100;94693.28;;;;
2021/05/15 05:14:30;;;;;;;1.8;1.5;;;;;;;9.84;100;94691.44;;;;
2021/05/15 05:15:31;;;;;;;1.8;1.5;;;;;;;9.84;100;94691.44;;;;
2021/05/15 05:16:31;;;;;;;1.8;1.5;;;;;;;9.84;100;94691.44;;;;
2021/05/15 05:17:32;;;;;;;1.8;1.5;;;;;;;9.84;100;94691.44;;;;
2021/05/15 05:18:32;;;;;;;1.8;1.5;;;;;;;9.84;100;94691.44;;;;
2021/05/15 05:19:33;;;;;;;1.8;1.5;;;;;;;9.84;100;94691.44;;;;
2021/05/15 05:20:33;;;;;;;1.8;1.5;;;;;;;9.84;100;94691.44;;;;
2021/05/15 05:21:34;;;;;;;1.8;1.5;;;;;;;9.84;100;94691.44;;;;
2021/05/15 05:22:34;;;;;;;1.8;1.5;;;;;;;9.84;100;94691.44;;;;
2021/05/15 05:23:35;;;;;;;1.8;1.5;;;;;;;9.84;100;94691.44;;;;
2021/05/15 05:24:35;;;;;;;1.8;1.5;;;;;;;9.84;100;94691.44;;;;
2021/05/15 05:25:36;;;;;;;2.85;1.6;;;;;;;10.09;100;94676.23;;;;
2021/05/15 05:26:38;;;;;;;2.85;1.6;;;;;;;10.09;100;94676.23;;;;
2021/05/15 05:27:40;;;;;;;2.85;1.6;;;;;;;10.09;100;94676.23;;;;
2021/05/15 05:28:43;;;;;;;2.85;1.6;;;;;;;10.09;100;94676.23;;;;
2021/05/15 05:29:43;;;;;;;2.85;1.6;;;;;;;10.09;100;94676.23;;;;
2021/05/15 05:30:43;;;;;;;2.85;1.6;;;;;;;10.09;100;94676.23;;;;
2021/05/15 05:31:44;;;;;;;2.85;1.6;;;;;;;10.09;100;94676.23;;;;
2021/05/15 05:32:45;;;;;;;2.85;1.6;;;;;;;10.09;100;94676.23;;;;
2021/05/15 05:33:47;;;;;;;2.85;1.6;;;;;;;10.09;100;94676.23;;;;
2021/05/15 05:34:48;;;;;;;2.85;1.6;;;;;;;10.09;100;94676.23;;;;
2021/05/15 05:35:48;;;;;;;1.6;1.5;;;;;;;10.3;100;94677.73;;;;
2021/05/15 05:36:49;;;;;;;1.6;1.5;;;;;;;10.3;100;94677.73;;;;
2021/05/15 05:37:49;;;;;;;1.6;1.5;;;;;;;10.3;100;94677.73;;;;
2021/05/15 05:38:50;;;;;;;1.6;1.5;;;;;;;10.3;100;94677.73;;;;
2021/05/15 05:39:52;;;;;;;1.6;1.5;;;;;;;10.3;100;94677.73;;;;
2021/05/15 05:40:52;;;;;;;1.6;1.5;;;;;;;10.3;100;94677.73;;;;
2021/05/15 05:41:53;;;;;;;1.6;1.5;;;;;;;10.3;100;94677.73;;;;
2021/05/15 05:42:53;;;;;;;1.6;1.5;;;;;;;10.3;100;94677.73;;;;
2021/05/15 05:43:54;;;;;;;1.6;1.5;;;;;;;10.3;100;94677.73;;;;
2021/05/15 05:44:54;;;;;;;1.6;1.5;;;;;;;10.3;100;94677.73;;;;
2021/05/15 05:45:55;;;;;;;1.6;1.5;;;;;;;10.3;100;94677.73;;;;
2021/05/15 05:46:55;;;;;;;1.5;1.4;;;;;;;10.66;100;94672.16;;;;
2021/05/15 05:47:56;;;;;;;1.5;1.4;;;;;;;10.66;100;94672.16;;;;
2021/05/15 05:48:57;;;;;;;1.5;1.4;;;;;;;10.66;100;94672.16;;;;
2021/05/15 05:49:57;;;;;;;1.5;1.4;;;;;;;10.66;100;94672.16;;;;
2021/05/15 05:50:58;;;;;;;1.5;1.4;;;;;;;10.66;100;94672.16;;;;
2021/05/15 05:51:59;;;;;;;1.5;1.4;;;;;;;10.66;100;94672.16;;;;
2021/05/15 05:52:59;;;;;;;1.5;1.4;;;;;;;10.66;100;94672.16;;;;
2021/05/15 05:54:00;;;;;;;1.5;1.4;;;;;;;10.66;100;94672.16;;;;
2021/05/15 05:55:01;;;;;;;1.5;1.4;;;;;;;10.66;100;94672.16;;;;
2021/05/15 05:56:03;;;;;;;1.5;1.4;;;;;;;10.66;100;94672.16;;;;
2021/05/15 05:57:04;;;;;;;1.5;1.4;;;;;;;11.16;100;94669.21;;;;
2021/05/15 05:58:05;;;;;;;1.5;1.4;;;;;;;11.16;100;94669.21;;;;
2021/05/15 05:59:06;;;;;;;1.5;1.4;;;;;;;11.16;100;94669.21;;;;
2021/05/15 06:00:06;;;;;;;1.5;1.4;;;;;;;11.16;100;94669.21;;;;
2021/05/15 06:01:08;;;;;;;1.5;1.4;;;;;;;11.16;100;94669.21;;;;
2021/05/15 06:02:10;;;;;;;1.5;1.4;;;;;;;11.16;100;94669.21;;;;
2021/05/15 06:03:11;;;;;;;1.5;1.4;;;;;;;11.16;100;94669.21;;;;
2021/05/15 06:04:11;;;;;;;1.5;1.4;;;;;;;11.16;100;94669.21;;;;
2021/05/15 06:05:12;;;;;;;1.5;1.4;;;;;;;11.16;100;94669.21;;;;
2021/05/15 06:06:12;;;;;;;1.5;1.4;;;;;;;11.16;100;94669.21;;;;
2021/05/15 06:07:13;;;;;;;1.5;1.4;;;;;;;11.16;100;94669.21;;;;
2021/05/15 06:08:14;;;;;;;2.1;1.35;;;;;;;11.58;100;94677.47;;;;
2021/05/15 06:09:18;;;;;;;2.1;1.35;;;;;;;11.58;100;94677.47;;;;
2021/05/15 06:10:18;;;;;;;2.1;1.35;;;;;;;11.58;100;94677.47;;;;
2021/05/15 06:11:19;;;;;;;2.1;1.35;;;;;;;11.58;100;94677.47;;;;
2021/05/15 06:12:19;;;;;;;2.1;1.35;;;;;;;11.58;100;94677.47;;;;
2021/05/15 06:13:20;;;;;;;2.1;1.35;;;;;;;11.58;100;94677.47;;;;
2021/05/15 06:14:21;;;;;;;2.1;1.35;;;;;;;11.58;100;94677.47;;;;
2021/05/15 06:15:21;;;;;;;2.1;1.35;;;;;;;11.58;100;94677.47;;;;
2021/05/15 06:16:22;;;;;;;2.1;1.35;;;;;;;11.58;100;94677.47;;;;
2021/05/15 06:17:23;;;;;;;2.1;1.35;;;;;;;11.58;100;94677.47;;;;
2021/05/15 06:18:23;;;;;;;2.1;1.5;;;;;;;12.09;100;94675.89;;;;
2021/05/15 06:19:24;;;;;;;2.1;1.5;;;;;;;12.09;100;94675.89;;;;
2021/05/15 06:20:24;;;;;;;2.1;1.5;;;;;;;12.09;100;94675.89;;;;
2021/05/15 06:21:25;;;;;;;2.1;1.5;;;;;;;12.09;100;94675.89;;;;
2021/05/15 06:22:26;;;;;;;2.1;1.5;;;;;;;12.09;100;94675.89;;;;
2021/05/15 06:23:26;;;;;;;2.1;1.5;;;;;;;12.09;100;94675.89;;;;
2021/05/15 06:24:27;;;;;;;2.1;1.5;;;;;;;12.09;100;94675.89;;;;